Terminal Aerodrome Forecast
Issued by NWS

Home | Current Version | Previous Version | Text Only | Print | Product List | Glossary On
Versions: 1 2 3 4 5 6 7 8 9 10 11 12 13 14 15
000
FTUS45 KTFX 110500
TAFCTB
TAF
KCTB 110520Z 1106/1206 03011KT P6SM VCTS SCT040CB BKN070
      TEMPO 1106/1110 VRB20G35KT -TSRA BKN035CB
     FM111100 36008KT P6SM SCT030 BKN060
     FM111800 10007KT P6SM SCT070=

USA.gov is the U.S. government's official web portal to all federal, state and local government web resources and services.